sensor_id;sensor_type;location;lat;lon;timestamp;pressure;altitude;pressure_sealevel;temperature;humidity
6198;BME280;3132;42.622;23.328;2022-11-04T00:01:56;92960.56;;;9.81;77.19
6198;BME280;3132;42.622;23.328;2022-11-04T00:04:23;92963.97;;;9.76;77.76
6198;BME280;3132;42.622;23.328;2022-11-04T00:06:50;92962.16;;;9.82;78.77
6198;BME280;3132;42.622;23.328;2022-11-04T00:09:18;92959.78;;;9.86;77.83
6198;BME280;3132;42.622;23.328;2022-11-04T00:11:44;92953.53;;;9.87;77.27
6198;BME280;3132;42.622;23.328;2022-11-04T00:14:29;92957.44;;;9.89;77.42
6198;BME280;3132;42.622;23.328;2022-11-04T00:16:55;92946.75;;;9.86;77.46
6198;BME280;3132;42.622;23.328;2022-11-04T00:19:39;92940.78;;;9.80;77.80
6198;BME280;3132;42.622;23.328;2022-11-04T00:22:23;92944.13;;;9.80;77.41
6198;BME280;3132;42.622;23.328;2022-11-04T00:25:27;92950.69;;;9.78;78.32
6198;BME280;3132;42.622;23.328;2022-11-04T00:28:16;92949.41;;;9.75;78.73
6198;BME280;3132;42.622;23.328;2022-11-04T00:31:03;92947.84;;;9.49;80.06
6198;BME280;3132;42.622;23.328;2022-11-04T00:33:49;92949.66;;;9.64;78.78
6198;BME280;3132;42.622;23.328;2022-11-04T00:36:15;92948.13;;;9.58;79.05
6198;BME280;3132;42.622;23.328;2022-11-04T00:38:41;92937.69;;;9.63;79.77
6198;BME280;3132;42.622;23.328;2022-11-04T00:41:07;92943.94;;;9.67;78.74
6198;BME280;3132;42.622;23.328;2022-11-04T00:43:51;92946.53;;;9.72;78.99
6198;BME280;3132;42.622;23.328;2022-11-04T00:46:19;92950.97;;;9.66;79.03
6198;BME280;3132;42.622;23.328;2022-11-04T00:48:44;92929.28;;;9.76;78.09
6198;BME280;3132;42.622;23.328;2022-11-04T00:51:09;92924.13;;;9.61;78.00
6198;BME280;3132;42.622;23.328;2022-11-04T00:53:35;92919.97;;;9.50;79.18
6198;BME280;3132;42.622;23.328;2022-11-04T00:56:00;92934.06;;;9.44;78.92
6198;BME280;3132;42.622;23.328;2022-11-04T00:58:27;92904.09;;;9.46;79.24
6198;BME280;3132;42.622;23.328;2022-11-04T01:00:53;92918.41;;;9.59;78.57
6198;BME280;3132;42.622;23.328;2022-11-04T01:03:18;92903.88;;;9.23;79.23
6198;BME280;3132;42.622;23.328;2022-11-04T01:05:44;92913.78;;;9.26;80.51
6198;BME280;3132;42.622;23.328;2022-11-04T01:08:09;92917.41;;;9.30;79.94
6198;BME280;3132;42.622;23.328;2022-11-04T01:10:35;92915.88;;;9.24;80.86
6198;BME280;3132;42.622;23.328;2022-11-04T01:13:12;92920.28;;;9.38;80.20
6198;BME280;3132;42.622;23.328;2022-11-04T01:15:37;92904.13;;;9.21;80.05
6198;BME280;3132;42.622;23.328;2022-11-04T01:18:03;92911.44;;;9.19;80.02
6198;BME280;3132;42.622;23.328;2022-11-04T01:20:29;92897.09;;;9.27;81.12
6198;BME280;3132;42.622;23.328;2022-11-04T01:22:54;92895.78;;;9.29;80.13
6198;BME280;3132;42.622;23.328;2022-11-04T01:25:19;92898.41;;;9.04;81.63
6198;BME280;3132;42.622;23.328;2022-11-04T01:27:45;92893.97;;;9.25;80.35
6198;BME280;3132;42.622;23.328;2022-11-04T01:30:10;92890.59;;;9.24;80.15
6198;BME280;3132;42.622;23.328;2022-11-04T01:32:36;92882.78;;;9.04;81.52
6198;BME280;3132;42.622;23.328;2022-11-04T01:35:01;92878.63;;;9.03;80.79
6198;BME280;3132;42.622;23.328;2022-11-04T01:37:26;92884.34;;;9.15;80.64
6198;BME280;3132;42.622;23.328;2022-11-04T01:39:52;92870.81;;;9.03;80.85
6198;BME280;3132;42.622;23.328;2022-11-04T01:42:20;92883.56;;;9.20;80.35
6198;BME280;3132;42.622;23.328;2022-11-04T01:47:41;92881.72;;;9.30;80.29
6198;BME280;3132;42.622;23.328;2022-11-04T01:50:21;92882.56;;;9.01;81.37
6198;BME280;3132;42.622;23.328;2022-11-04T01:55:26;92875.47;;;9.21;80.49
6198;BME280;3132;42.622;23.328;2022-11-04T01:57:57;92875.25;;;8.98;81.31
6198;BME280;3132;42.622;23.328;2022-11-04T02:00:23;92878.63;;;8.98;82.60
6198;BME280;3132;42.622;23.328;2022-11-04T02:03:03;92875.78;;;8.95;81.63
6198;BME280;3132;42.622;23.328;2022-11-04T02:05:30;92867.44;;;8.88;82.00
6198;BME280;3132;42.622;23.328;2022-11-04T02:07:57;92867.97;;;8.90;82.75
6198;BME280;3132;42.622;23.328;2022-11-04T02:10:28;92857.06;;;8.78;82.58
6198;BME280;3132;42.622;23.328;2022-11-04T02:12:54;92865.63;;;9.03;81.41
6198;BME280;3132;42.622;23.328;2022-11-04T02:21:20;92852.88;;;8.72;83.61
6198;BME280;3132;42.622;23.328;2022-11-04T02:32:22;92865.34;;;8.75;83.56
6198;BME280;3132;42.622;23.328;2022-11-04T02:40:59;92848.97;;;8.59;83.33
6198;BME280;3132;42.622;23.328;2022-11-04T02:49:11;92852.34;;;8.65;83.55
6198;BME280;3132;42.622;23.328;2022-11-04T02:51:41;92844.53;;;8.75;83.82
6198;BME280;3132;42.622;23.328;2022-11-04T02:54:13;92847.16;;;8.60;84.09
6198;BME280;3132;42.622;23.328;2022-11-04T02:56:43;92850.53;;;8.55;84.63
6198;BME280;3132;42.622;23.328;2022-11-04T02:59:16;92846.63;;;8.48;84.03
6198;BME280;3132;42.622;23.328;2022-11-04T03:01:45;92846.59;;;8.38;85.42
6198;BME280;3132;42.622;23.328;2022-11-04T03:04:20;92844.81;;;8.43;85.12
6198;BME280;3132;42.622;23.328;2022-11-04T03:06:47;92822.19;;;8.39;84.68
6198;BME280;3132;42.622;23.328;2022-11-04T03:09:14;92835.97;;;8.34;84.72
6198;BME280;3132;42.622;23.328;2022-11-04T03:11:43;92838.28;;;8.26;85.58
6198;BME280;3132;42.622;23.328;2022-11-04T03:14:17;92848.19;;;8.34;85.06
6198;BME280;3132;42.622;23.328;2022-11-04T03:16:48;92848.69;;;8.46;84.80
6198;BME280;3132;42.622;23.328;2022-11-04T03:19:20;92844.28;;;8.36;84.87
6198;BME280;3132;42.622;23.328;2022-11-04T03:22:02;92854.91;;;8.30;85.73
6198;BME280;3132;42.622;23.328;2022-11-04T03:24:29;92848.63;;;8.20;86.56
6198;BME280;3132;42.622;23.328;2022-11-04T03:30:03;92853.59;;;8.12;87.03
6198;BME280;3132;42.622;23.328;2022-11-04T03:35:16;92841.94;;;8.25;85.96
6198;BME280;3132;42.622;23.328;2022-11-04T03:37:43;92835.38;;;8.12;86.04
6198;BME280;3132;42.622;23.328;2022-11-04T03:40:09;92850.22;;;8.22;85.87
6198;BME280;3132;42.622;23.328;2022-11-04T03:42:39;92846.63;;;8.28;86.36
6198;BME280;3132;42.622;23.328;2022-11-04T03:45:06;92842.38;;;8.11;86.34
6198;BME280;3132;42.622;23.328;2022-11-04T03:47:32;92824.16;;;8.06;86.50
6198;BME280;3132;42.622;23.328;2022-11-04T03:50:06;92828.09;;;8.04;86.89
6198;BME280;3132;42.622;23.328;2022-11-04T03:52:34;92826.00;;;8.01;87.08
6198;BME280;3132;42.622;23.328;2022-11-04T03:55:00;92823.63;;;7.89;87.81
6198;BME280;3132;42.622;23.328;2022-11-04T03:57:34;92834.31;;;8.13;86.90
6198;BME280;3132;42.622;23.328;2022-11-04T04:05:35;92832.47;;;7.98;87.69
6198;BME280;3132;42.622;23.328;2022-11-04T04:08:15;92835.09;;;7.93;88.94
6198;BME280;3132;42.622;23.328;2022-11-04T04:14:06;92831.97;;;7.96;88.37
6198;BME280;3132;42.622;23.328;2022-11-04T04:16:38;92831.19;;;8.11;87.88
6198;BME280;3132;42.622;23.328;2022-11-04T04:19:18;92832.47;;;7.98;87.84
6198;BME280;3132;42.622;23.328;2022-11-04T04:21:54;92828.84;;;7.99;88.44
6198;BME280;3132;42.622;23.328;2022-11-04T04:24:26;92824.41;;;7.90;88.27
6198;BME280;3132;42.622;23.328;2022-11-04T04:27:12;92824.94;;;7.87;88.94
6198;BME280;3132;42.622;23.328;2022-11-04T04:32:36;92818.66;;;7.83;88.73
6198;BME280;3132;42.622;23.328;2022-11-04T04:35:05;92825.47;;;7.89;89.04
6198;BME280;3132;42.622;23.328;2022-11-04T04:37:51;92827.00;;;7.85;89.61
6198;BME280;3132;42.622;23.328;2022-11-04T04:40:20;92821.28;;;7.88;89.91
6198;BME280;3132;42.622;23.328;2022-11-04T04:43:13;92818.41;;;7.89;89.43
6198;BME280;3132;42.622;23.328;2022-11-04T04:45:59;92824.13;;;7.76;90.81
6198;BME280;3132;42.622;23.328;2022-11-04T04:48:25;92824.13;;;7.86;90.09
6198;BME280;3132;42.622;23.328;2022-11-04T04:50:52;92814.75;;;7.75;90.08
6198;BME280;3132;42.622;23.328;2022-11-04T04:53:21;92821.00;;;7.74;90.00
6198;BME280;3132;42.622;23.328;2022-11-04T04:55:47;92816.03;;;7.68;90.75
6198;BME280;3132;42.622;23.328;2022-11-04T04:58:12;92811.09;;;7.66;90.90
6198;BME280;3132;42.622;23.328;2022-11-04T05:00:37;92802.22;;;7.57;90.66
6198;BME280;3132;42.622;23.328;2022-11-04T05:03:03;92813.69;;;7.66;91.20
6198;BME280;3132;42.622;23.328;2022-11-04T05:05:28;92819.94;;;7.75;90.87
6198;BME280;3132;42.622;23.328;2022-11-04T05:07:53;92827.75;;;7.70;91.58
6198;BME280;3132;42.622;23.328;2022-11-04T05:10:19;92822.31;;;7.82;92.10
6198;BME280;3132;42.622;23.328;2022-11-04T05:12:45;92816.84;;;7.73;91.32
6198;BME280;3132;42.622;23.328;2022-11-04T05:15:29;92828.06;;;7.89;91.04
6198;BME280;3132;42.622;23.328;2022-11-04T05:17:56;92833.75;;;7.91;90.35
6198;BME280;3132;42.622;23.328;2022-11-04T05:20:23;92835.03;;;7.78;91.63
6198;BME280;3132;42.622;23.328;2022-11-04T05:22:48;92838.69;;;7.92;91.02
6198;BME280;3132;42.622;23.328;2022-11-04T05:25:14;92826.97;;;7.75;91.45
6198;BME280;3132;42.622;23.328;2022-11-04T05:27:39;92845.47;;;8.03;90.90
6198;BME280;3132;42.622;23.328;2022-11-04T05:30:05;92840.28;;;8.03;90.80
6198;BME280;3132;42.622;23.328;2022-11-04T05:32:30;92819.22;;;7.90;90.76
6198;BME280;3132;42.622;23.328;2022-11-04T05:34:56;92839.53;;;8.13;90.43
6198;BME280;3132;42.622;23.328;2022-11-04T05:37:22;92834.88;;;8.15;90.25
6198;BME280;3132;42.622;23.328;2022-11-04T05:39:47;92854.09;;;8.19;90.75
6198;BME280;3132;42.622;23.328;2022-11-04T05:42:13;92834.84;;;8.10;90.92
6198;BME280;3132;42.622;23.328;2022-11-04T05:44:38;92860.94;;;8.35;90.40
6198;BME280;3132;42.622;23.328;2022-11-04T05:47:03;92861.19;;;8.39;90.64
6198;BME280;3132;42.622;23.328;2022-11-04T05:49:29;92863.81;;;8.54;89.78
6198;BME280;3132;42.622;23.328;2022-11-04T05:51:54;92851.56;;;8.44;90.20
6198;BME280;3132;42.622;23.328;2022-11-04T05:54:19;92840.91;;;8.51;90.32
6198;BME280;3132;42.622;23.328;2022-11-04T05:56:45;92862.00;;;8.54;90.59
6198;BME280;3132;42.622;23.328;2022-11-04T05:59:10;92865.34;;;8.55;91.17
6198;BME280;3132;42.622;23.328;2022-11-04T06:01:40;92867.97;;;8.65;91.22
6198;BME280;3132;42.622;23.328;2022-11-04T06:04:06;92872.13;;;8.61;91.41
6198;BME280;3132;42.622;23.328;2022-11-04T06:06:34;92876.28;;;8.72;91.51
6198;BME280;3132;42.622;23.328;2022-11-04T06:09:01;92867.47;;;8.78;90.69
6198;BME280;3132;42.622;23.328;2022-11-04T06:11:28;92881.00;;;8.95;90.32
6198;BME280;3132;42.622;23.328;2022-11-04T06:13:55;92880.44;;;9.03;90.09
6198;BME280;3132;42.622;23.328;2022-11-04T06:16:21;92879.41;;;9.04;89.73
6198;BME280;3132;42.622;23.328;2022-11-04T06:18:47;92878.38;;;9.15;89.55
6198;BME280;3132;42.622;23.328;2022-11-04T06:23:38;92867.38;;;9.33;88.08
6198;BME280;3132;42.622;23.328;2022-11-04T06:26:04;92871.53;;;9.34;88.44
6198;BME280;3132;42.622;23.328;2022-11-04T06:28:30;92876.22;;;9.42;87.78
6198;BME280;3132;42.622;23.328;2022-11-04T06:30:57;92874.41;;;9.42;88.19
6198;BME280;3132;42.622;23.328;2022-11-04T06:33:22;92862.66;;;9.45;88.02
6198;BME280;3132;42.622;23.328;2022-11-04T06:35:48;92873.84;;;9.55;87.75
6198;BME280;3132;42.622;23.328;2022-11-04T06:38:13;92875.13;;;9.63;87.79
6198;BME280;3132;42.622;23.328;2022-11-04T06:40:38;92865.97;;;9.70;88.20
6198;BME280;3132;42.622;23.328;2022-11-04T06:43:04;92866.53;;;9.62;88.11
6198;BME280;3132;42.622;23.328;2022-11-04T06:45:29;92889.59;;;9.99;87.03
6198;BME280;3132;42.622;23.328;2022-11-04T06:47:54;92870.53;;;10.04;86.98
6198;BME280;3132;42.622;23.328;2022-11-04T06:50:20;92879.38;;;10.13;87.37
6198;BME280;3132;42.622;23.328;2022-11-04T06:52:45;92883.81;;;10.12;88.34
6198;BME280;3132;42.622;23.328;2022-11-04T06:55:10;92877.94;;;10.35;87.40
6198;BME280;3132;42.622;23.328;2022-11-04T06:57:36;92871.97;;;10.35;86.91
6198;BME280;3132;42.622;23.328;2022-11-04T07:00:02;92886.19;;;10.52;86.44
6198;BME280;3132;42.622;23.328;2022-11-04T07:02:28;92884.09;;;10.54;85.85
6198;BME280;3132;42.622;23.328;2022-11-04T07:04:53;92880.81;;;10.77;84.21
6198;BME280;3132;42.622;23.328;2022-11-04T07:07:18;92865.38;;;10.81;82.97
6198;BME280;3132;42.622;23.328;2022-11-04T07:09:44;92858.25;;;10.86;82.99
6198;BME280;3132;42.622;23.328;2022-11-04T07:12:09;92873.63;;;10.93;82.87
6198;BME280;3132;42.622;23.328;2022-11-04T07:14:34;92878.22;;;10.72;84.43
6198;BME280;3132;42.622;23.328;2022-11-04T07:17:00;92880.44;;;10.94;83.61
6198;BME280;3132;42.622;23.328;2022-11-04T07:19:26;92874.19;;;10.90;84.17
6198;BME280;3132;42.622;23.328;2022-11-04T07:21:51;92865.97;;;11.06;83.87
6198;BME280;3132;42.622;23.328;2022-11-04T07:24:17;92858.03;;;10.88;85.83
6198;BME280;3132;42.622;23.328;2022-11-04T07:26:42;92846.88;;;11.06;84.15
6198;BME280;3132;42.622;23.328;2022-11-04T07:29:08;92865.91;;;11.11;84.96
6198;BME280;3132;42.622;23.328;2022-11-04T07:31:36;92847.88;;;11.67;81.94
6198;BME280;3132;42.622;23.328;2022-11-04T07:34:01;92862.44;;;11.45;83.96
6198;BME280;3132;42.622;23.328;2022-11-04T07:36:27;92833.25;;;11.38;83.56
6198;BME280;3132;42.622;23.328;2022-11-04T07:38:53;92842.72;;;11.28;83.52
6198;BME280;3132;42.622;23.328;2022-11-04T07:41:18;92832.53;;;11.56;82.18
6198;BME280;3132;42.622;23.328;2022-11-04T07:43:51;92837.50;;;11.81;80.82
6198;BME280;3132;42.622;23.328;2022-11-04T07:46:18;92843.94;;;11.88;80.69
6198;BME280;3132;42.622;23.328;2022-11-04T07:48:43;92850.69;;;12.13;79.75
6198;BME280;3132;42.622;23.328;2022-11-04T07:51:11;92851.88;;;12.02;79.46
6198;BME280;3132;42.622;23.328;2022-11-04T07:53:37;92838.91;;;12.15;79.75
6198;BME280;3132;42.622;23.328;2022-11-04T07:56:07;92847.75;;;12.38;78.52
6198;BME280;3132;42.622;23.328;2022-11-04T07:58:32;92838.34;;;12.37;78.60
6198;BME280;3132;42.622;23.328;2022-11-04T12:41:36;92503.22;;;17.32;56.16
6198;BME280;3132;42.622;23.328;2022-11-04T12:47:09;92504.59;;;17.38;55.64
6198;BME280;3132;42.622;23.328;2022-11-04T12:49:52;92490.16;;;17.44;55.20
6198;BME280;3132;42.622;23.328;2022-11-04T13:00:13;92485.75;;;18.02;53.31
6198;BME280;3132;42.622;23.328;2022-11-04T13:02:45;92483.47;;;17.80;53.79
6198;BME280;3132;42.622;23.328;2022-11-04T13:07:47;92481.75;;;17.63;55.30
6198;BME280;3132;42.622;23.328;2022-11-04T13:10:25;92491.13;;;17.31;55.94
6198;BME280;3132;42.622;23.328;2022-11-04T13:12:52;92498.50;;;17.26;56.71
6198;BME280;3132;42.622;23.328;2022-11-04T13:15:22;92475.78;;;17.54;54.87
6198;BME280;3132;42.622;23.328;2022-11-04T13:17:52;92484.97;;;17.69;54.16
6198;BME280;3132;42.622;23.328;2022-11-04T13:20:26;92487.66;;;17.39;56.07
6198;BME280;3132;42.622;23.328;2022-11-04T13:22:58;92478.91;;;17.27;57.49
6198;BME280;3132;42.622;23.328;2022-11-04T13:25:33;92477.50;;;17.09;57.41
6198;BME280;3132;42.622;23.328;2022-11-04T13:28:01;92487.22;;;16.96;59.15
6198;BME280;3132;42.622;23.328;2022-11-04T13:30:59;92497.84;;;16.79;57.02
6198;BME280;3132;42.622;23.328;2022-11-04T13:38:33;92481.28;;;16.99;58.07
6198;BME280;3132;42.622;23.328;2022-11-04T13:43:30;92476.72;;;17.08;56.70
6198;BME280;3132;42.622;23.328;2022-11-04T13:46:14;92488.16;;;17.12;57.28
6198;BME280;3132;42.622;23.328;2022-11-04T13:48:56;92490.59;;;16.97;57.66
6198;BME280;3132;42.622;23.328;2022-11-04T13:51:33;92475.72;;;16.92;57.29
6198;BME280;3132;42.622;23.328;2022-11-04T13:53:59;92474.28;;;17.03;56.57
6198;BME280;3132;42.622;23.328;2022-11-04T13:56:25;92485.22;;;16.93;58.29
6198;BME280;3132;42.622;23.328;2022-11-04T13:58:54;92476.75;;;16.79;58.96
6198;BME280;3132;42.622;23.328;2022-11-04T14:04:13;92481.66;;;16.60;60.53
6198;BME280;3132;42.622;23.328;2022-11-04T14:07:00;92473.34;;;16.50;59.64
6198;BME280;3132;42.622;23.328;2022-11-04T14:15:00;92458.75;;;16.52;60.85
6198;BME280;3132;42.622;23.328;2022-11-04T14:22:36;92464.97;;;16.39;58.50
6198;BME280;3132;42.622;23.328;2022-11-04T14:25:56;92467.47;;;16.44;56.94
6198;BME280;3132;42.622;23.328;2022-11-04T14:30:49;92461.34;;;16.23;59.57
6198;BME280;3132;42.622;23.328;2022-11-04T14:38:43;92463.38;;;16.55;51.48
6198;BME280;3132;42.622;23.328;2022-11-04T14:43:52;92458.06;;;16.26;51.68
6198;BME280;3132;42.622;23.328;2022-11-04T14:46:21;92457.59;;;16.24;52.67
6198;BME280;3132;42.622;23.328;2022-11-04T14:48:50;92466.78;;;16.09;55.89
6198;BME280;3132;42.622;23.328;2022-11-04T14:51:27;92469.63;;;15.96;55.61
6198;BME280;3132;42.622;23.328;2022-11-04T14:54:19;92470.78;;;15.78;56.21
6198;BME280;3132;42.622;23.328;2022-11-04T14:56:45;92458.69;;;15.77;53.55
6198;BME280;3132;42.622;23.328;2022-11-04T14:59:21;92439.03;;;15.66;53.75
6198;BME280;3132;42.622;23.328;2022-11-04T15:01:47;92442.25;;;15.80;55.82
6198;BME280;3132;42.622;23.328;2022-11-04T15:06:39;92439.03;;;15.74;55.44
6198;BME280;3132;42.622;23.328;2022-11-04T15:09:18;92421.16;;;15.42;57.32
6198;BME280;3132;42.622;23.328;2022-11-04T15:11:44;92415.41;;;15.23;56.98
6198;BME280;3132;42.622;23.328;2022-11-04T15:14:28;92407.38;;;15.03;56.70
6198;BME280;3132;42.622;23.328;2022-11-04T15:16:55;92430.88;;;15.25;50.69
6198;BME280;3132;42.622;23.328;2022-11-04T15:19:32;92425.75;;;15.37;50.05
6198;BME280;3132;42.622;23.328;2022-11-04T15:22:00;92435.84;;;15.43;50.13
6198;BME280;3132;42.622;23.328;2022-11-04T15:24:27;92438.28;;;15.57;47.30
6198;BME280;3132;42.622;23.328;2022-11-04T15:27:01;92437.66;;;15.68;47.43
6198;BME280;3132;42.622;23.328;2022-11-04T15:29:27;92432.88;;;15.62;48.01
6198;BME280;3132;42.622;23.328;2022-11-04T15:32:03;92428.06;;;15.55;47.97
6198;BME280;3132;42.622;23.328;2022-11-04T15:34:29;92440.44;;;15.55;48.15
6198;BME280;3132;42.622;23.328;2022-11-04T15:36:57;92434.66;;;15.78;46.44
6198;BME280;3132;42.622;23.328;2022-11-04T15:39:33;92438.09;;;15.70;47.19
6198;BME280;3132;42.622;23.328;2022-11-04T15:42:02;92443.09;;;16.09;44.92
6198;BME280;3132;42.622;23.328;2022-11-04T15:44:50;92443.63;;;15.94;46.50
6198;BME280;3132;42.622;23.328;2022-11-04T15:49:41;92446.59;;;16.31;44.46
6198;BME280;3132;42.622;23.328;2022-11-04T15:52:11;92435.91;;;16.27;44.34
6198;BME280;3132;42.622;23.328;2022-11-04T15:54:40;92441.38;;;16.14;45.50
6198;BME280;3132;42.622;23.328;2022-11-04T16:00:06;92445.16;;;16.33;44.24
6198;BME280;3132;42.622;23.328;2022-11-04T16:02:35;92449.06;;;16.27;45.28
6198;BME280;3132;42.622;23.328;2022-11-04T16:07:37;92445.53;;;16.23;48.38
6198;BME280;3132;42.622;23.328;2022-11-04T16:12:47;92449.94;;;16.40;43.81
6198;BME280;3132;42.622;23.328;2022-11-04T16:23:43;92439.69;;;16.09;45.12
6198;BME280;3132;42.622;23.328;2022-11-04T16:26:10;92440.19;;;16.02;45.64
6198;BME280;3132;42.622;23.328;2022-11-04T16:28:37;92438.50;;;15.98;45.41
6198;BME280;3132;42.622;23.328;2022-11-04T16:31:31;92433.25;;;15.98;45.94
6198;BME280;3132;42.622;23.328;2022-11-04T16:33:57;92439.63;;;15.80;46.63
6198;BME280;3132;42.622;23.328;2022-11-04T16:36:22;92429.44;;;15.70;46.58
6198;BME280;3132;42.622;23.328;2022-11-04T16:38:55;92430.34;;;15.74;46.22
6198;BME280;3132;42.622;23.328;2022-11-04T16:41:23;92428.66;;;15.78;45.89
6198;BME280;3132;42.622;23.328;2022-11-04T16:43:49;92422.19;;;15.67;46.51
6198;BME280;3132;42.622;23.328;2022-11-04T16:46:16;92420.19;;;15.64;47.54
6198;BME280;3132;42.622;23.328;2022-11-04T16:48:42;92421.28;;;15.29;51.55
6198;BME280;3132;42.622;23.328;2022-11-04T16:51:14;92417.59;;;15.13;52.95
6198;BME280;3132;42.622;23.328;2022-11-04T16:53:40;92417.22;;;14.63;56.13
6198;BME280;3132;42.622;23.328;2022-11-04T16:56:06;92418.47;;;14.74;55.55
6198;BME280;3132;42.622;23.328;2022-11-04T16:58:32;92409.84;;;14.17;57.85
6198;BME280;3132;42.622;23.328;2022-11-04T17:00:57;92431.78;;;14.13;58.61
6198;BME280;3132;42.622;23.328;2022-11-04T17:03:23;92431.56;;;14.01;59.35
6198;BME280;3132;42.622;23.328;2022-11-04T17:05:53;92449.19;;;14.00;60.51
6198;BME280;3132;42.622;23.328;2022-11-04T17:08:20;92462.25;;;13.92;61.26
6198;BME280;3132;42.622;23.328;2022-11-04T17:10:45;92465.22;;;13.99;60.29
6198;BME280;3132;42.622;23.328;2022-11-04T17:13:11;92463.53;;;14.03;59.91
6198;BME280;3132;42.622;23.328;2022-11-04T17:15:37;92465.78;;;13.87;60.64
6198;BME280;3132;42.622;23.328;2022-11-04T17:18:02;92441.16;;;13.66;61.53
6198;BME280;3132;42.622;23.328;2022-11-04T17:20:28;92455.19;;;13.70;61.67
6198;BME280;3132;42.622;23.328;2022-11-04T17:22:56;92456.88;;;13.66;62.09
6198;BME280;3132;42.622;23.328;2022-11-04T17:25:23;92462.25;;;13.61;62.12
6198;BME280;3132;42.622;23.328;2022-11-04T17:27:49;92464.56;;;13.63;62.16
6198;BME280;3132;42.622;23.328;2022-11-04T17:30:16;92466.78;;;13.47;62.81
6198;BME280;3132;42.622;23.328;2022-11-04T17:32:42;92469.16;;;13.57;62.91
6198;BME280;3132;42.622;23.328;2022-11-04T17:35:08;92456.31;;;13.47;62.63
6198;BME280;3132;42.622;23.328;2022-11-04T17:37:34;92458.91;;;13.47;62.78
6198;BME280;3132;42.622;23.328;2022-11-04T17:39:59;92456.53;;;13.37;63.69
6198;BME280;3132;42.622;23.328;2022-11-04T17:42:25;92439.44;;;13.18;64.36
6198;BME280;3132;42.622;23.328;2022-11-04T17:45:09;92453.69;;;13.25;63.97
6198;BME280;3132;42.622;23.328;2022-11-04T17:47:35;92442.88;;;13.05;64.50
6198;BME280;3132;42.622;23.328;2022-11-04T17:50:02;92447.41;;;13.13;64.23
6198;BME280;3132;42.622;23.328;2022-11-04T17:52:27;92436.75;;;13.09;64.16
6198;BME280;3132;42.622;23.328;2022-11-04T17:54:53;92449.19;;;13.04;64.53
6198;BME280;3132;42.622;23.328;2022-11-04T17:57:18;92443.78;;;13.00;65.68
6198;BME280;3132;42.622;23.328;2022-11-04T17:59:43;92416.38;;;12.70;65.99
6198;BME280;3132;42.622;23.328;2022-11-04T18:02:09;92452.19;;;12.97;67.22
6198;BME280;3132;42.622;23.328;2022-11-04T18:04:34;92435.75;;;12.83;68.24
6198;BME280;3132;42.622;23.328;2022-11-04T18:07:00;92432.88;;;12.71;67.22
6198;BME280;3132;42.622;23.328;2022-11-04T18:09:25;92436.44;;;12.75;67.66
6198;BME280;3132;42.622;23.328;2022-11-04T18:11:51;92434.31;;;12.77;67.63
6198;BME280;3132;42.622;23.328;2022-11-04T18:14:35;92435.00;;;12.69;67.28
6198;BME280;3132;42.622;23.328;2022-11-04T18:17:01;92434.16;;;12.60;67.74
6198;BME280;3132;42.622;23.328;2022-11-04T18:19:27;92427.16;;;12.69;67.33
6198;BME280;3132;42.622;23.328;2022-11-04T18:21:52;92422.50;;;12.66;67.18
6198;BME280;3132;42.622;23.328;2022-11-04T18:24:18;92414.06;;;12.69;66.51
6198;BME280;3132;42.622;23.328;2022-11-04T18:26:44;92407.88;;;12.65;66.06
6198;BME280;3132;42.622;23.328;2022-11-04T18:29:10;92411.06;;;12.62;65.29
6198;BME280;3132;42.622;23.328;2022-11-04T18:31:40;92425.84;;;12.80;65.37
6198;BME280;3132;42.622;23.328;2022-11-04T18:34:07;92428.78;;;12.78;64.52
6198;BME280;3132;42.622;23.328;2022-11-04T18:36:35;92440.50;;;12.81;66.16
6198;BME280;3132;42.622;23.328;2022-11-04T18:39:03;92446.72;;;12.85;66.55
6198;BME280;3132;42.622;23.328;2022-11-04T18:41:30;92442.56;;;12.70;68.80
6198;BME280;3132;42.622;23.328;2022-11-04T18:43:55;92434.66;;;12.62;68.64
6198;BME280;3132;42.622;23.328;2022-11-04T18:46:21;92438.38;;;12.34;70.07
6198;BME280;3132;42.622;23.328;2022-11-04T18:48:48;92445.91;;;12.49;69.42
6198;BME280;3132;42.622;23.328;2022-11-04T18:51:15;92438.53;;;12.51;68.83
6198;BME280;3132;42.622;23.328;2022-11-04T18:53:41;92448.47;;;12.40;70.01
6198;BME280;3132;42.622;23.328;2022-11-04T18:56:08;92445.38;;;12.25;70.62
6198;BME280;3132;42.622;23.328;2022-11-04T18:58:37;92437.00;;;12.36;71.15
6198;BME280;3132;42.622;23.328;2022-11-04T19:01:08;92429.19;;;12.23;70.34
6198;BME280;3132;42.622;23.328;2022-11-04T19:03:34;92431.00;;;12.36;69.96
6198;BME280;3132;42.622;23.328;2022-11-04T19:06:08;92431.88;;;12.18;70.62
6198;BME280;3132;42.622;23.328;2022-11-04T19:08:34;92428.41;;;11.95;71.32
6198;BME280;3132;42.622;23.328;2022-11-04T19:11:00;92451.56;;;12.02;71.58
6198;BME280;3132;42.622;23.328;2022-11-04T19:13:25;92450.59;;;11.98;72.23
6198;BME280;3132;42.622;23.328;2022-11-04T19:15:51;92441.66;;;11.99;72.78
6198;BME280;3132;42.622;23.328;2022-11-04T19:18:16;92442.91;;;11.88;72.55
6198;BME280;3132;42.622;23.328;2022-11-04T19:20:43;92439.19;;;11.94;72.63
6198;BME280;3132;42.622;23.328;2022-11-04T19:23:09;92446.72;;;11.95;72.51
6198;BME280;3132;42.622;23.328;2022-11-04T19:25:39;92436.44;;;11.85;72.46
6198;BME280;3132;42.622;23.328;2022-11-04T19:28:06;92449.72;;;11.89;72.35
6198;BME280;3132;42.622;23.328;2022-11-04T19:30:33;92448.56;;;11.95;71.62
6198;BME280;3132;42.622;23.328;2022-11-04T19:32:59;92423.81;;;11.74;72.21
6198;BME280;3132;42.622;23.328;2022-11-04T19:35:24;92444.75;;;11.74;73.03
6198;BME280;3132;42.622;23.328;2022-11-04T19:37:50;92458.50;;;11.66;73.75
6198;BME280;3132;42.622;23.328;2022-11-04T19:40:15;92408.09;;;11.47;72.58
6198;BME280;3132;42.622;23.328;2022-11-04T19:42:41;92446.47;;;11.65;72.57
6198;BME280;3132;42.622;23.328;2022-11-04T19:45:25;92452.91;;;12.13;70.83
6198;BME280;3132;42.622;23.328;2022-11-04T19:47:50;92475.59;;;11.90;72.39
6198;BME280;3132;42.622;23.328;2022-11-04T19:50:16;92472.84;;;11.68;72.99
6198;BME280;3132;42.622;23.328;2022-11-04T19:52:42;92453.13;;;12.03;70.99
6198;BME280;3132;42.622;23.328;2022-11-04T19:55:08;92489.25;;;12.01;72.24
6198;BME280;3132;42.622;23.328;2022-11-04T19:57:34;92487.50;;;11.83;72.58
6198;BME280;3132;42.622;23.328;2022-11-04T19:59:59;92478.59;;;11.84;72.84
6198;BME280;3132;42.622;23.328;2022-11-04T20:02:25;92489.72;;;11.76;73.14
6198;BME280;3132;42.622;23.328;2022-11-04T20:04:50;92479.78;;;11.59;73.64